Tropical Cyclones
[Index]
Main Index Home Page Stock Weather Photos Extreme Storms Discussion Storm News and Storm Chasing Reports Tropical Cyclones / Hurricanes / Typhoons Weather Data and Links Wild Fires / Bushfires Weather Observation Techniques Weather Picture Catalogue Tornado Pictures and Reports Stock Video Footage and DVDs for sale
Season 2010-2011 Tropical Cyclone 201011_25 Track Map
Season 2010-2011 Summaries: [BoM-AU] [JTWC-AU] [JTWC-SIO] [JTWC-SPAC] [JTWC-SH]
<<- Previous TC | BoM 2010-2011 Season | Next TC ->>

click for intensity scale information  Lat/long Grid: Show Hide

 Date Labels: Show Hide

Bureau of Meteorology Tropical Cyclone Data

Name: 201011_25
Number: 950 / 201011_25

26 Mar 2011 00:00 UTC to 08 Apr 2011 03:00 UTC

    date/time    lat    long    hPa   cat  kts
2011-03-26 00    8.5   129.5   1007                     
2011-03-26 03    9.0   129.5   1006                     
2011-03-26 06    9.0   131.0   1005                     
2011-03-26 12    9.0   130.0   1006                     
2011-03-26 18    9.0   131.0   1005                     
2011-03-27 00    9.0   131.0   1005                     
2011-03-27 06    9.0   132.0   1003                     
2011-03-27 12    9.5   132.0   1005                     
2011-03-27 18    9.5   132.0   1003                     
2011-03-27 21    9.5   132.5   1003                     
2011-03-28 00    9.5   132.5   1005                     
2011-03-28 03    9.5   132.5   1004                     
2011-03-28 06   10.0   133.5                            
2011-03-28 12   10.1   132.3   1005                     
2011-03-28 18   10.1   132.3   1003                     
2011-03-29 00   10.4   132.5   1005                     
2011-03-29 03   10.4   132.5   1004                     
2011-03-29 06   10.4   132.6   1001                     
2011-03-29 09   10.5   132.7   1003                     
2011-03-29 12   10.5   132.8   1005                     
2011-03-29 15   10.6   132.8   1004                     
2011-03-29 18   10.7   132.8   1002                     
2011-03-29 21   10.8   132.8   1002         20          
2011-03-30 00   10.7   132.5   1004         20          
2011-03-30 03   10.6   132.3   1002         20          
2011-03-30 06   10.6   132.3   1001         20          
2011-03-30 09   10.6   132.0   1001         20          
2011-03-30 12   10.6   131.8   1002         20          
2011-03-30 15   10.6   131.6   1002         20          
2011-03-30 18   10.7   131.5   1002         20          
2011-03-30 21   10.9   131.3   1002         20          
2011-03-31 00   11.0   131.2   1002         25          
2011-03-31 03   11.2   131.1   1001         25          
2011-03-31 06   11.5   131.0   1000         25          
2011-03-31 09   11.8   131.0   1001         25          
2011-03-31 12   12.0   130.8   1000         25          
2011-03-31 15   12.0   130.6   1000         25          
2011-03-31 18   12.0   130.3    999         25          
2011-03-31 21   11.9   130.0   1001         25          
2011-04-01 00   11.9   129.6   1001         25          
2011-04-01 03   12.0   129.3   1000         25          
2011-04-01 06   12.2   129.1    998         25          
2011-04-01 09   12.4   129.1    999         25          
2011-04-01 12   12.6   129.0   1000         25          
2011-04-01 15   12.9   128.9   1000         25          
2011-04-01 18   13.3   128.7    999         25          
2011-04-01 21   13.4   128.1    998         25          
2011-04-02 00   13.5   127.7    998         30          
2011-04-02 03   13.5   127.3    997         30          
2011-04-02 06   13.8   127.0    995    1    30          
2011-04-02 09   14.0   126.7    994    1    30          
2011-04-02 12   14.0   126.6    994    1    30          
2011-04-02 15   14.2   126.3    994    1    30          
2011-04-02 18   14.3   126.0    996         25          
2011-04-02 21   14.6   125.7    996         25          
2011-04-03 00   14.7   125.5    998         25          
2011-04-03 03   14.9   125.3    998         25          
2011-04-03 06   15.1   124.9    996         25          
2011-04-03 09   15.5   124.7    998         25          
2011-04-03 12   15.6   124.5    998         25          
2011-04-03 15   15.7   124.3   1000         25          
2011-04-03 18   15.8   124.1   1000         25          
2011-04-03 21   15.8   123.9   1000         25          
2011-04-04 00   15.9   123.7   1000         25          
2011-04-04 03   15.8   123.4   1002         20          
2011-04-04 06   15.7   123.0   1002         20          
2011-04-04 12   15.7   123.0   1002         20          
2011-04-04 13   15.8   123.5   1002         20          
2011-04-04 18   15.7   123.5   1002         20          
2011-04-05 00   15.7   123.3   1002         20          
2011-04-05 03   16.0   122.8   1004                     
2011-04-05 06   16.2   122.8   1004                     
2011-04-06 00   16.1   121.0   1007                     
2011-04-06 03   16.4   120.7   1006                     
2011-04-06 06   16.7   120.2   1005                     
2011-04-07 00   16.9   118.9   1007                     
2011-04-07 03   16.8   118.6   1007                     
2011-04-07 06   16.9   118.6                            
2011-04-07 09   17.0   118.7                            
2011-04-08 00   17.6   118.3   1007                     
2011-04-08 03   17.5   118.0   1008                     
Winds are 10-min average.

Tropical cyclone tracks developed by Michael Bath using data from the Bureau of Meteorology and Google Maps.


[Australian Severe Weather index] [Copyright Notice] [Email Contacts] [Search This Site] [Privacy Policy]
Document: tropical_cyclone_201011_25.htm Updated: 29 June 2017